createdAt,value
2018-11-10T00:00:10.114Z,99962.41
2018-11-10T00:02:43.018Z,99944.46
2018-11-10T00:05:14.739Z,99949.88
2018-11-10T00:07:53.820Z,99950.14
2018-11-10T00:10:25.386Z,99944.89
2018-11-10T00:13:00.719Z,99946.47
2018-11-10T00:15:34.130Z,99942.27
2018-11-10T00:18:05.686Z,99949.55
2018-11-10T00:20:38.199Z,99946.14
2018-11-10T00:23:09.939Z,99932.41
2018-11-10T00:25:41.038Z,99935.55
2018-11-10T00:28:12.588Z,99935.55
2018-11-10T00:30:47.448Z,99930.93
2018-11-10T00:33:19.445Z,99927.72
2018-11-10T00:35:51.998Z,99916.17
2018-11-10T00:38:26.467Z,99921.80
2018-11-10T00:41:01.884Z,99907.11
2018-11-10T00:43:32.954Z,99908.55
2018-11-10T00:46:06.457Z,99906.52
2018-11-10T00:48:39.540Z,99899.45
2018-11-10T00:51:23.871Z,99895.13
2018-11-10T00:54:01.117Z,99890.73
2018-11-10T00:56:32.836Z,99901.14
2018-11-10T00:59:05.843Z,99897.41
2018-11-10T01:01:40.391Z,99894.25
2018-11-10T01:04:09.565Z,99897.13
2018-11-10T01:06:43.341Z,99896.28
2018-11-10T01:09:14.759Z,99891.88
2018-11-10T01:11:47.842Z,99895.56
2018-11-10T01:14:20.334Z,99896.83
2018-11-10T01:16:51.884Z,99903.05
2018-11-10T01:19:24.109Z,99894.97
2018-11-10T01:22:02.384Z,99886.16
2018-11-10T01:24:33.498Z,99882.06
2018-11-10T01:27:12.691Z,99872.16
2018-11-10T01:29:43.922Z,99878.72
2018-11-10T01:32:18.795Z,99879.52
2018-11-10T01:34:50.042Z,99876.30
2018-11-10T01:37:24.627Z,99868.43
2018-11-10T01:39:58.419Z,99865.93
2018-11-10T01:42:32.076Z,99862.92
2018-11-10T01:45:06.453Z,99844.69
2018-11-10T01:47:41.738Z,99847.44
2018-11-10T01:50:14.704Z,99842.53
2018-11-10T01:52:47.577Z,99840.75
2018-11-10T01:55:18.630Z,99836.56
2018-11-10T01:57:49.735Z,99839.27
2018-11-10T02:00:32.829Z,99826.37
2018-11-10T02:03:04.053Z,99821.92
2018-11-10T02:05:56.340Z,99810.45
2018-11-10T02:08:28.006Z,99800.64
2018-11-10T02:10:59.290Z,99795.06
2018-11-10T02:13:30.590Z,99782.88
2018-11-10T02:16:01.847Z,99782.45
2018-11-10T02:18:33.429Z,99776.02
2018-11-10T02:21:04.758Z,99772.17
2018-11-10T02:23:36.013Z,99767.65
2018-11-10T02:26:07.332Z,99767.05
2018-11-10T02:28:38.541Z,99767.65
2018-11-10T02:31:09.771Z,99775.65
2018-11-10T02:33:41.416Z,99769.33
2018-11-10T02:36:14.918Z,99769.47
2018-11-10T02:38:46.319Z,99771.19
2018-11-10T02:41:20.573Z,99768.78
2018-11-10T02:43:53.298Z,99763.41
2018-11-10T02:46:25.777Z,99763.80
2018-11-10T02:48:58.100Z,99745.52
2018-11-10T02:51:29.185Z,99747.84
2018-11-10T02:54:05.324Z,99737.59
2018-11-10T02:56:42.198Z,99732.26
2018-11-10T02:59:16.112Z,99731.33
2018-11-10T03:01:49.214Z,99730.98
2018-11-10T03:04:23.752Z,99720.27
2018-11-10T03:06:54.818Z,99706.58
2018-11-10T03:09:26.425Z,99717.85
2018-11-10T03:11:57.538Z,99714.53
2018-11-10T03:14:31.054Z,99712.28
2018-11-10T03:17:02.857Z,99716.70
2018-11-10T03:19:36.299Z,99703.09
2018-11-10T03:22:08.708Z,99698.82
2018-11-10T03:24:41.908Z,99702.31
2018-11-10T03:27:14.072Z,99691.32
2018-11-10T03:29:46.771Z,99692.52
2018-11-10T03:32:19.026Z,99685.97
2018-11-10T03:34:51.594Z,99692.22
2018-11-10T03:37:24.175Z,99697.09
2018-11-10T03:39:56.579Z,99686.84
2018-11-10T03:42:29.051Z,99685.30
2018-11-10T03:45:01.919Z,99686.86
2018-11-10T03:47:32.882Z,99681.84
2018-11-10T03:50:04.888Z,99684.05
2018-11-10T03:52:40.176Z,99687.01
2018-11-10T03:55:14.703Z,99687.75
2018-11-10T03:57:48.327Z,99671.62
2018-11-10T04:00:24.709Z,99675.56
2018-11-10T04:02:57.849Z,99670.78
2018-11-10T04:05:30.899Z,99669.71
2018-11-10T04:08:03.588Z,99672.11
2018-11-10T04:10:36.081Z,99658.63
2018-11-10T04:13:09.022Z,99659.58
2018-11-10T04:15:41.289Z,99656.11
2018-11-10T04:18:14.554Z,99653.84
2018-11-10T04:20:47.188Z,99644.75
2018-11-10T04:23:20.168Z,99629.59
2018-11-10T04:25:53.708Z,99634.01
2018-11-10T04:28:27.379Z,99640.58
2018-11-10T04:30:58.513Z,99633.16
2018-11-10T04:33:30.706Z,99634.84
2018-11-10T04:36:03.268Z,99612.28
2018-11-10T04:38:37.790Z,99617.16
2018-11-10T04:41:12.480Z,99611.56
2018-11-10T04:43:46.415Z,99609.52
2018-11-10T04:46:18.158Z,99616.31
2018-11-10T04:48:49.212Z,99610.11
2018-11-10T04:51:20.613Z,99599.73
2018-11-10T04:53:56.855Z,99594.81
2018-11-10T04:56:27.908Z,99590.03
2018-11-10T04:59:05.435Z,99592.31
2018-11-10T05:01:40.792Z,99587.05
2018-11-10T05:04:15.396Z,99591.94
2018-11-10T05:06:49.678Z,99586.58
2018-11-10T05:09:20.769Z,99568.88
2018-11-10T05:11:51.942Z,99569.11
2018-11-10T05:14:27.768Z,99573.98
2018-11-10T05:17:06.552Z,99571.58
2018-11-10T05:19:42.021Z,99579.82
2018-11-10T05:22:14.783Z,99577.67
2018-11-10T05:24:47.822Z,99570.73
2018-11-10T05:27:19.928Z,99582.19
2018-11-10T05:29:51.792Z,99566.66
2018-11-10T05:32:23.505Z,99568.80
2018-11-10T05:34:57.771Z,99586.34
2018-11-10T05:37:32.047Z,99566.87
2018-11-10T05:40:02.909Z,99580.48
2018-11-10T05:42:33.971Z,99576.67
2018-11-10T05:45:09.840Z,99588.00
2018-11-10T05:47:43.341Z,99589.83
2018-11-10T05:50:21.966Z,99576.05
2018-11-10T05:52:53.249Z,99575.36
2018-11-10T05:55:26.066Z,99582.39
2018-11-10T05:57:57.129Z,99572.81
2018-11-10T06:00:32.130Z,99574.52
2018-11-10T06:03:07.738Z,99567.95
2018-11-10T06:05:44.169Z,99580.52
2018-11-10T06:08:17.901Z,99587.44
2018-11-10T06:10:51.974Z,99594.48
2018-11-10T06:13:22.987Z,99589.34
2018-11-10T06:15:58.843Z,99595.11
2018-11-10T06:18:34.612Z,99583.39
2018-11-10T06:21:05.573Z,99581.00
2018-11-10T06:23:38.165Z,99604.90
2018-11-10T06:26:10.818Z,99592.25
2018-11-10T06:28:46.536Z,99597.25
2018-11-10T06:31:22.892Z,99605.89
2018-11-10T06:34:01.891Z,99607.77
2018-11-10T06:36:38.411Z,99623.09
2018-11-10T06:39:15.718Z,99625.86
2018-11-10T06:41:47.528Z,99623.61
2018-11-10T06:44:22.841Z,99620.48
2018-11-10T06:46:54.016Z,99629.22
2018-11-10T06:52:03.095Z,99625.88
2018-11-10T06:54:34.778Z,99635.08
2018-11-10T06:57:15.030Z,99636.53
2018-11-10T06:59:46.170Z,99628.89
2018-11-10T07:02:23.537Z,99633.30
2018-11-10T07:04:59.479Z,99626.48
2018-11-10T07:07:31.469Z,99622.17
2018-11-10T07:10:03.386Z,99621.80
2018-11-10T07:12:36.056Z,99621.42
2018-11-10T07:15:09.680Z,99619.64
2018-11-10T07:17:40.756Z,99633.48
2018-11-10T07:20:12.209Z,99622.50
2018-11-10T07:22:43.372Z,99626.67
2018-11-10T07:25:14.491Z,99638.86
2018-11-10T07:27:49.319Z,99633.46
2018-11-10T07:30:21.521Z,99643.97
2018-11-10T07:32:55.335Z,99651.73
2018-11-10T07:35:30.406Z,99644.80
2018-11-10T07:38:01.488Z,99643.86
2018-11-10T07:40:37.227Z,99647.05
2018-11-10T07:43:09.079Z,99640.75
2018-11-10T07:45:40.770Z,99656.75
2018-11-10T07:48:15.505Z,99654.69
2018-11-10T07:50:51.145Z,99659.00
2018-11-10T07:53:23.193Z,99666.16
2018-11-10T07:55:58.360Z,99666.60
2018-11-10T07:58:32.283Z,99666.15
2018-11-10T08:01:03.352Z,99653.96
2018-11-10T08:03:43.273Z,99655.97
2018-11-10T08:06:19.895Z,99671.41
2018-11-10T08:08:58.207Z,99659.83
2018-11-10T08:11:29.850Z,99653.88
2018-11-10T08:14:03.959Z,99643.37
2018-11-10T08:16:35.020Z,99648.98
2018-11-10T08:19:09.687Z,99657.45
2018-11-10T08:21:40.971Z,99654.12
2018-11-10T08:24:15.481Z,99650.77
2018-11-10T08:26:52.563Z,99652.67
2018-11-10T08:29:25.223Z,99647.55
2018-11-10T08:31:57.113Z,99646.48
2018-11-10T08:34:30.709Z,99646.48
2018-11-10T08:37:00.189Z,99648.73
2018-11-10T08:39:31.254Z,99645.40
2018-11-10T08:42:06.694Z,99654.45
2018-11-10T08:44:43.310Z,99657.31
2018-11-10T08:47:16.175Z,99659.94
2018-11-10T08:49:52.645Z,99658.29
2018-11-10T08:52:28.565Z,99668.17
2018-11-10T08:55:04.490Z,99663.07
2018-11-10T08:57:41.973Z,99663.78
2018-11-10T09:00:13.730Z,99656.25
2018-11-10T09:02:44.824Z,99655.29
2018-11-10T09:05:24.358Z,99655.19
2018-11-10T09:07:55.993Z,99656.51
2018-11-10T09:10:34.288Z,99665.20
2018-11-10T09:13:06.119Z,99655.42
2018-11-10T09:15:37.867Z,99665.20
2018-11-10T09:18:13.583Z,99668.79
2018-11-10T09:20:45.411Z,99679.39
2018-11-10T09:23:31.548Z,99684.87
2018-11-10T09:26:12.120Z,99680.95
2018-11-10T09:29:03.770Z,99686.81
2018-11-10T09:32:00.981Z,99689.81
2018-11-10T09:34:33.046Z,99693.98
2018-11-10T09:37:07.168Z,99690.04
2018-11-10T09:39:39.467Z,99696.46
2018-11-10T09:42:11.438Z,99701.02
2018-11-10T09:44:57.311Z,99686.42
2018-11-10T09:47:28.319Z,99702.31
2018-11-10T09:49:59.466Z,99710.34
2018-11-10T09:52:38.465Z,99709.09
2018-11-10T09:59:55.850Z,99710.66
2018-11-10T10:03:05.823Z,99713.06
2018-11-10T10:05:52.872Z,99701.02
2018-11-10T10:08:34.631Z,99690.98
2018-11-10T10:11:07.157Z,99705.57
2018-11-10T10:13:42.229Z,99693.52
2018-11-10T10:16:22.992Z,99689.22
2018-11-10T10:18:59.205Z,99689.69
2018-11-10T10:21:48.676Z,99688.27
2018-11-10T10:24:41.490Z,99690.77
2018-11-10T10:27:42.675Z,99687.06
2018-11-10T10:30:27.090Z,99689.45
2018-11-10T10:33:04.132Z,99690.64
2018-11-10T10:35:44.410Z,99688.97
2018-11-10T10:38:18.043Z,99690.53
2018-11-10T10:40:54.491Z,99682.42
2018-11-10T10:43:29.348Z,99688.03
2018-11-10T10:46:09.586Z,99683.28
2018-11-10T10:48:42.216Z,99681.73
2018-11-10T10:51:25.400Z,99678.13
2018-11-10T10:54:07.273Z,99677.33
2018-11-10T10:56:46.914Z,99678.42
2018-11-10T10:59:19.381Z,99682.03
2018-11-10T11:02:08.918Z,99669.70
2018-11-10T11:04:57.133Z,99667.81
2018-11-10T11:07:29.050Z,99666.98
2018-11-10T11:10:00.454Z,99679.52
2018-11-10T11:12:34.504Z,99675.09
2018-11-10T11:15:13.348Z,99681.44
2018-11-10T11:17:45.443Z,99676.66
2018-11-10T11:20:23.021Z,99683.70
2018-11-10T11:22:55.944Z,99688.00
2018-11-10T11:25:33.145Z,99676.28
2018-11-10T11:28:05.407Z,99680.83
2018-11-10T11:30:46.082Z,99685.61
2018-11-10T11:33:18.048Z,99680.59
2018-11-10T11:35:51.439Z,99675.45
2018-11-10T11:38:23.405Z,99677.97
2018-11-10T11:40:55.394Z,99676.05
2018-11-10T11:43:27.777Z,99670.45
2018-11-10T11:45:59.898Z,99665.44
2018-11-10T11:48:32.260Z,99658.50
2018-11-10T11:51:08.564Z,99660.42
2018-11-10T11:53:47.528Z,99660.99
2018-11-10T11:56:20.868Z,99654.69
2018-11-10T11:58:54.956Z,99653.95
2018-11-10T12:01:26.379Z,99650.98
2018-11-10T12:04:16.484Z,99651.33
2018-11-10T12:06:48.126Z,99644.28
2018-11-10T12:09:22.025Z,99643.91
2018-11-10T12:11:57.768Z,99646.78
2018-11-10T12:14:30.056Z,99653.62
2018-11-10T12:17:05.568Z,99646.44
2018-11-10T12:19:37.706Z,99642.97
2018-11-10T12:22:10.119Z,99638.78
2018-11-10T12:24:41.132Z,99633.16
2018-11-10T12:27:17.720Z,99639.96
2018-11-10T12:29:51.925Z,99636.16
2018-11-10T12:32:27.684Z,99587.31
2018-11-10T12:35:07.304Z,99627.56
2018-11-10T12:37:39.364Z,99635.69
2018-11-10T12:40:14.157Z,99633.16
2018-11-10T12:42:49.357Z,99633.86
2018-11-10T12:45:24.262Z,99630.53
2018-11-10T12:47:55.360Z,99628.27
2018-11-10T12:50:33.450Z,99632.58
2018-11-10T12:53:04.570Z,99630.42
2018-11-10T12:55:35.769Z,99631.38
2018-11-10T12:58:11.879Z,99628.27
2018-11-10T13:00:43.395Z,99637.23
2018-11-10T13:03:15.181Z,99629.82
2018-11-10T13:05:50.346Z,99629.22
2018-11-10T13:08:26.410Z,99622.31
2018-11-10T13:10:57.709Z,99620.63
2018-11-10T13:13:30.701Z,99614.98
2018-11-10T13:16:01.792Z,99614.52
2018-11-10T13:18:33.047Z,99611.66
2018-11-10T13:21:04.217Z,99609.50
2018-11-10T13:23:35.998Z,99604.00
2018-11-10T13:26:09.527Z,99599.95
2018-11-10T13:28:42.504Z,99600.20
2018-11-10T13:31:14.055Z,99604.24
2018-11-10T13:33:54.857Z,99598.28
2018-11-10T13:36:34.214Z,99592.79
2018-11-10T13:39:06.828Z,99591.84
2018-11-10T13:41:44.067Z,99584.77
2018-11-10T13:44:20.733Z,99582.14
2018-11-10T13:46:54.891Z,99586.09
2018-11-10T13:49:27.488Z,99580.13
2018-11-10T13:52:00.739Z,99582.28
2018-11-10T13:54:36.084Z,99581.67
2018-11-10T13:57:22.234Z,99587.06
2018-11-10T13:59:57.435Z,99580.83
2018-11-10T14:02:28.657Z,99578.81
2018-11-10T14:05:02.317Z,99575.95
2018-11-10T14:07:37.748Z,99581.57
2018-11-10T14:10:17.571Z,99573.79
2018-11-10T14:12:49.547Z,99581.57
2018-11-10T14:15:20.788Z,99585.14
2018-11-10T14:17:55.623Z,99585.27
2018-11-10T14:20:32.019Z,99580.84
2018-11-10T14:23:05.164Z,99582.16
2018-11-10T14:25:41.400Z,99580.26
2018-11-10T14:28:12.474Z,99567.47
2018-11-10T14:30:50.454Z,99572.62
2018-11-10T14:33:29.402Z,99577.03
2018-11-10T14:36:01.000Z,99576.66
2018-11-10T14:38:32.519Z,99575.72
2018-11-10T14:41:06.268Z,99574.03
2018-11-10T14:43:38.517Z,99573.70
2018-11-10T14:46:11.707Z,99567.59
2018-11-10T14:48:45.203Z,99570.09
2018-11-10T14:51:18.566Z,99565.91
2018-11-10T14:53:49.606Z,99559.33
2018-11-10T14:56:22.038Z,99555.15
2018-11-10T14:58:53.460Z,99558.63
2018-11-10T15:01:26.530Z,99552.66
2018-11-10T15:04:01.635Z,99542.63
2018-11-10T15:06:36.553Z,99543.23
2018-11-10T15:09:09.993Z,99552.77
2018-11-10T15:11:41.235Z,99547.65
2018-11-10T15:14:12.907Z,99544.64
2018-11-10T15:16:43.953Z,99549.52
2018-11-10T15:19:18.461Z,99547.03
2018-11-10T15:21:49.512Z,99548.72
2018-11-10T15:24:24.022Z,99556.37
2018-11-10T15:26:55.129Z,99562.57
2018-11-10T15:29:28.088Z,99565.91
2018-11-10T15:32:04.634Z,99561.63
2018-11-10T15:34:36.611Z,99560.17
2018-11-10T15:37:10.086Z,99551.83
2018-11-10T15:39:50.921Z,99553.38
2018-11-10T15:42:25.951Z,99560.42
2018-11-10T15:45:00.142Z,99556.72
2018-11-10T15:47:32.067Z,99550.75
2018-11-10T15:50:03.642Z,99551.70
2018-11-10T15:52:36.364Z,99539.53
2018-11-10T15:55:09.343Z,99547.88
2018-11-10T15:57:44.479Z,99557.80
2018-11-10T16:00:16.777Z,99550.52
2018-11-10T16:02:49.141Z,99553.14
2018-11-10T16:05:24.887Z,99554.22
2018-11-10T16:07:56.345Z,99561.87
2018-11-10T16:10:27.754Z,99563.52
2018-11-10T16:13:09.858Z,99565.44
2018-11-10T16:15:43.584Z,99556.95
2018-11-10T16:18:16.348Z,99558.77
2018-11-10T16:20:51.425Z,99560.31
2018-11-10T16:23:23.389Z,99562.71
2018-11-10T16:25:57.087Z,99564.50
2018-11-10T16:28:30.175Z,99573.80
2018-11-10T16:31:02.156Z,99562.95
2018-11-10T16:33:34.402Z,99569.75
2018-11-10T16:36:08.360Z,99562.34
2018-11-10T16:38:42.419Z,99560.66
2018-11-10T16:41:20.273Z,99555.88
2018-11-10T16:43:55.629Z,99564.97
2018-11-10T16:46:26.591Z,99561.97
2018-11-10T16:48:57.952Z,99570.59
2018-11-10T16:51:30.481Z,99564.14
2018-11-10T16:54:05.951Z,99571.64
2018-11-10T16:56:36.313Z,99565.21
2018-11-10T16:59:14.266Z,99568.55
2018-11-10T17:01:51.420Z,99570.47
2018-11-10T17:04:27.479Z,99584.31
2018-11-10T17:07:01.952Z,99580.27
2018-11-10T17:09:33.293Z,99575.59
2018-11-10T17:12:04.976Z,99577.51
2018-11-10T17:14:37.436Z,99568.55
2018-11-10T17:17:08.915Z,99571.18
2018-11-10T17:19:42.184Z,99568.55
2018-11-10T17:22:13.369Z,99572.15
2018-11-10T17:24:46.025Z,99557.19
2018-11-10T17:27:19.580Z,99560.33
2018-11-10T17:29:53.335Z,99554.94
2018-11-10T17:32:28.002Z,99552.08
2018-11-10T17:34:59.395Z,99557.19
2018-11-10T17:37:32.855Z,99569.02
2018-11-10T17:40:06.321Z,99565.21
2018-11-10T17:42:39.418Z,99574.17
2018-11-10T17:45:16.634Z,99573.09
2018-11-10T17:47:49.174Z,99568.31
2018-11-10T17:50:22.858Z,99579.53
2018-11-10T17:52:55.723Z,99581.34
2018-11-10T17:55:30.340Z,99586.70
2018-11-10T17:58:01.737Z,99592.67
2018-11-10T18:00:33.094Z,99578.48
2018-11-10T18:03:04.677Z,99578.11
2018-11-10T18:05:35.763Z,99575.58
2018-11-10T18:08:12.185Z,99582.42
2018-11-10T18:10:47.168Z,99578.95
2018-11-10T18:13:25.905Z,99594.34
2018-11-10T18:15:56.982Z,99594.95
2018-11-10T18:18:28.103Z,99592.56
2018-11-10T18:21:02.628Z,99603.91
2018-11-10T18:23:34.006Z,99579.42
2018-11-10T18:26:05.380Z,99593.27
2018-11-10T18:28:41.158Z,99591.09
2018-11-10T18:31:15.280Z,99589.20
2018-11-10T18:33:47.746Z,99597.33
2018-11-10T18:36:18.928Z,99590.63
2018-11-10T18:38:49.947Z,99594.09
2018-11-10T18:41:25.329Z,99588.23
2018-11-10T18:43:57.024Z,99588.61
2018-11-10T18:46:28.811Z,99578.94
2018-11-10T18:49:07.247Z,99589.20
2018-11-10T18:51:42.108Z,99583.34
2018-11-10T18:54:16.173Z,99577.72
2018-11-10T18:56:51.689Z,99578.33
2018-11-10T18:59:28.825Z,99575.45
2018-11-10T19:02:01.161Z,99582.87
2018-11-10T19:04:41.908Z,99581.19
2018-11-10T19:07:14.714Z,99583.45
2018-11-10T19:09:47.807Z,99571.14
2018-11-10T19:12:19.948Z,99588.70
2018-11-10T19:14:52.474Z,99578.80
2018-11-10T19:17:24.721Z,99590.63
2018-11-10T19:19:57.720Z,99595.52
2018-11-10T19:22:30.538Z,99599.13
2018-11-10T19:25:03.517Z,99583.00
2018-11-10T19:27:36.497Z,99599.83
2018-11-10T19:30:17.235Z,99595.52
2018-11-10T19:32:49.289Z,99604.15
2018-11-10T19:35:20.720Z,99606.41
2018-11-10T19:37:52.234Z,99609.88
2018-11-10T19:40:23.422Z,99615.61
2018-11-10T19:42:54.735Z,99609.17
2018-11-10T19:45:26.347Z,99621.00
2018-11-10T19:47:57.416Z,99608.80
2018-11-10T19:50:29.048Z,99616.08
2018-11-10T19:53:00.180Z,99616.22
2018-11-10T19:55:37.343Z,99621.47
2018-11-10T19:58:08.653Z,99624.94
2018-11-10T20:00:43.392Z,99621.34
2018-11-10T20:03:15.912Z,99628.17
2018-11-10T20:05:46.954Z,99623.02
2018-11-10T20:08:22.479Z,99629.58
2018-11-10T20:10:56.946Z,99627.80
2018-11-10T20:13:32.764Z,99631.97
2018-11-10T20:16:17.839Z,99621.80
2018-11-10T20:18:56.051Z,99630.75
2018-11-10T20:21:28.408Z,99619.50
2018-11-10T20:24:01.952Z,99619.16
2018-11-10T20:26:34.694Z,99620.47
2018-11-10T20:29:07.442Z,99609.59
2018-11-10T20:31:40.243Z,99613.43
2018-11-10T20:34:13.197Z,99623.09
2018-11-10T20:36:45.715Z,99625.34
2018-11-10T20:39:18.239Z,99612.22
2018-11-10T20:41:53.873Z,99617.84
2018-11-10T20:44:26.470Z,99632.05
2018-11-10T20:46:57.794Z,99628.33
2018-11-10T20:49:36.119Z,99629.17
2018-11-10T20:52:09.970Z,99629.75
2018-11-10T20:54:41.457Z,99634.19
2018-11-10T20:57:18.120Z,99632.50
2018-11-10T20:59:51.848Z,99648.95
2018-11-10T21:02:26.144Z,99646.70
2018-11-10T21:05:06.881Z,99645.75
2018-11-10T21:07:39.809Z,99646.45
2018-11-10T21:10:19.136Z,99643.82
2018-11-10T21:12:53.314Z,99657.28
2018-11-10T21:15:29.706Z,99651.92
2018-11-10T21:18:06.850Z,99655.48
2018-11-10T21:20:40.896Z,99655.16
2018-11-10T21:23:15.069Z,99657.77
2018-11-10T21:25:51.927Z,99656.70
2018-11-10T21:28:24.207Z,99660.04
2018-11-10T21:30:57.915Z,99654.92
2018-11-10T21:33:30.663Z,99656.80
2018-11-10T21:36:03.478Z,99671.84
2018-11-10T21:38:37.461Z,99673.84
2018-11-10T21:41:13.280Z,99684.34
2018-11-10T21:43:46.651Z,99674.22
2018-11-10T21:46:21.634Z,99680.65
2018-11-10T21:48:53.280Z,99679.71
2018-11-10T21:51:29.398Z,99685.58
2018-11-10T21:54:04.874Z,99683.41
2018-11-10T21:56:41.369Z,99678.02
2018-11-10T21:59:14.223Z,99673.86
2018-11-10T22:01:46.889Z,99682.58
2018-11-10T22:04:20.061Z,99682.48
2018-11-10T22:06:51.264Z,99688.92
2018-11-10T22:09:27.059Z,99679.97
2018-11-10T22:11:58.079Z,99684.75
2018-11-10T22:14:30.681Z,99680.67
2018-11-10T22:17:02.568Z,99697.39
2018-11-10T22:19:42.187Z,99693.30
2018-11-10T22:22:13.345Z,99692.59
2018-11-10T22:24:49.441Z,99702.47
2018-11-10T22:27:20.742Z,99692.33
2018-11-10T22:29:53.349Z,99699.60
2018-11-10T22:32:25.799Z,99694.35
2018-11-10T22:34:59.184Z,99688.48
2018-11-10T22:37:31.797Z,99683.36
2018-11-10T22:40:04.307Z,99693.96
2018-11-10T22:42:37.779Z,99698.95
2018-11-10T22:45:13.731Z,99706.33
2018-11-10T22:47:50.612Z,99708.52
2018-11-10T22:50:23.110Z,99706.52
2018-11-10T22:53:00.479Z,99702.58
2018-11-10T22:55:38.247Z,99703.89
2018-11-10T22:58:17.934Z,99692.17
2018-11-10T23:01:11.143Z,99689.92
2018-11-10T23:03:47.342Z,99697.57
2018-11-10T23:06:20.830Z,99689.08
2018-11-10T23:08:54.480Z,99687.30
2018-11-10T23:11:26.166Z,99700.06
2018-11-10T23:14:03.517Z,99699.95
2018-11-10T23:16:39.733Z,99696.70
2018-11-10T23:19:18.320Z,99699.82
2018-11-10T23:21:49.372Z,99698.51
2018-11-10T23:24:21.701Z,99697.95
2018-11-10T23:26:55.426Z,99691.85
2018-11-10T23:29:31.767Z,99700.66
2018-11-10T23:32:02.817Z,99693.48
2018-11-10T23:34:36.109Z,99695.39
2018-11-10T23:37:10.670Z,99700.86
2018-11-10T23:39:45.147Z,99699.92
2018-11-10T23:42:16.702Z,99702.64
2018-11-10T23:45:08.670Z,99710.20
2018-11-10T23:47:40.117Z,99700.27
2018-11-10T23:50:15.822Z,99695.77
2018-11-10T23:52:47.800Z,99700.89
2018-11-10T23:55:19.072Z,99695.77
2018-11-10T23:57:52.959Z,99686.58
